Estació municipal de Seva (Osona, P.N. del Montseny)

Consulta les dades en temps real de l'estació municipal de Seva





Hora UTC 09:55
Temperatura 32.8 ºC
Sòl 15 cm 40.8 ºC
Humitat 29.3 %
Pressió 1025.3 hPa
Pluja 0.0 mm
Velocitat vent 5.6 km/h
Direcció vent SE
Radiació solar 638.9 W/m²

Webcam

Dades diàries 2026-09-06



Hora UTC (hivern +1h; estiu +2h)
Temperatura (ºC) Humitat (%) Pressió (hPa) Velocitat vent (km/h) Precipitació (mm) Radiació solar (W/m²)
Hora UTC Aire Sòl 15 cm Humitat Pressió Vel. Dir. Vel. Max Dir. Intent. màx 5 min. Rad. Sol.
00:05 20.8 18.7 59.4 1025.7 0.0 NNE 0.0 S 0.0 0.0
00:10 20.8 18.7 59.1 1025.7 0.0 NNE 0.0 NE 0.0 0.1
00:15 20.7 18.5 59.1 1025.7 0.8 ENE 2.8 NE 0.0 0.0
00:20 20.6 18.4 59.3 1025.7 3.5 ENE 4.6 ENE 0.0 0.1
00:25 20.5 18.4 59.9 1025.7 2.6 ENE 4.2 NE 0.0 0.0
00:30 20.5 18.4 60.6 1025.6 2.8 E 3.9 ESE 0.0 0.1
00:35 20.4 18.3 60.9 1025.6 3.2 ENE 3.9 E 0.0 0.1
00:40 20.4 18.3 60.9 1025.5 3.5 E 4.6 E 0.0 0.0
00:45 20.3 18.4 61.1 1025.5 3.0 ESE 3.9 E 0.0 0.0
00:50 20.3 18.3 61.2 1025.5 2.9 ENE 3.9 ENE 0.0 0.0
00:55 20.2 18.2 62.2 1025.5 1.2 ESE 2.8 E 0.0 0.0
01:00 20.1 18.0 62.5 1025.5 0.3 SSE 1.8 SSE 0.0 0.1
01:05 20.0 17.8 62.6 1025.5 0.4 SSE 1.8 SSE 0.0 0.1
01:10 20.0 17.8 62.5 1025.4 0.0 NNE 0.0 SSE 0.0 0.1
01:15 20.1 17.8 62.4 1025.5 0.2 ENE 1.8 ENE 0.0 0.0
01:20 20.1 17.8 62.8 1025.5 0.8 NE 2.1 NE 0.0 0.1
01:25 20.0 17.7 63.2 1025.4 2.0 NE 3.2 NNE 0.0 0.1
01:30 20.0 17.7 63.3 1025.4 2.8 NE 3.9 NE 0.0 0.1
01:35 20.0 17.7 63.4 1025.4 3.1 NE 4.6 NE 0.0 0.1
01:40 20.1 17.7 63.3 1025.4 3.4 NE 4.9 NE 0.0 0.1
01:45 20.1 17.8 63.5 1025.4 3.2 NNE 4.6 NE 0.0 0.1
01:50 20.2 17.8 63.7 1025.3 1.9 NE 4.2 NNE 0.0 0.1
01:55 20.1 17.8 63.4 1025.3 1.2 E 2.5 ENE 0.0 0.1
02:00 19.9 17.7 64.1 1025.3 0.0 SE 1.1 SE 0.0 0.1
02:05 19.7 17.5 65.2 1025.3 0.5 ESE 1.8 ENE 0.0 0.1
02:10 19.6 17.4 65.7 1025.3 1.8 ENE 2.8 E 0.0 0.1
02:15 19.6 17.4 65.8 1025.3 4.1 ENE 5.3 E 0.0 0.0
02:20 19.5 17.4 65.5 1025.3 3.8 ENE 4.6 ENE 0.0 0.1
02:25 19.5 17.5 65.4 1025.2 3.3 ENE 4.2 ENE 0.0 0.1
02:30 19.5 17.5 65.5 1025.2 4.3 ENE 4.9 ENE 0.0 0.1
02:35 19.4 17.5 65.6 1025.2 4.6 ENE 6.0 E 0.0 0.1
02:40 19.4 17.4 65.7 1025.2 4.6 ENE 5.6 E 0.0 0.0
02:45 19.5 17.4 65.5 1025.2 2.9 ENE 4.6 ENE 0.0 0.1
02:50 19.5 17.2 66.0 1025.2 1.8 ENE 4.2 NNE 0.0 0.1
02:55 19.5 17.3 66.1 1025.2 1.9 E 2.8 E 0.0 0.1
03:00 19.4 17.3 67.0 1025.1 1.0 ESE 2.5 E 0.0 0.1
03:05 19.4 17.2 66.9 1025.2 0.1 S 1.4 S 0.0 0.0
03:10 19.3 17.1 67.2 1025.2 0.0 NNE 0.0 S 0.0 0.0
03:15 19.1 16.9 67.8 1025.2 0.0 NNE 0.0 SSE 0.0 0.1
03:20 19.0 16.7 68.1 1025.1 0.8 SE 1.8 SE 0.0 0.1
03:25 18.9 16.6 68.4 1025.1 0.1 ESE 1.1 ESE 0.0 0.1
03:30 18.8 16.5 68.7 1025.1 0.1 ESE 1.4 ESE 0.0 0.0
03:35 18.7 16.4 68.5 1025.1 0.0 NNE 1.1 NNE 0.0 0.1
03:40 18.7 16.4 68.8 1025.1 2.2 NE 3.2 NE 0.0 0.1
03:45 18.7 16.4 69.7 1025.0 2.0 E 3.5 ENE 0.0 0.1
03:50 18.8 16.4 67.7 1025.0 0.8 NE 2.1 ENE 0.0 0.1
03:55 18.8 16.6 67.8 1025.0 1.3 ENE 2.8 E 0.0 0.1
04:00 18.7 16.5 67.8 1025.0 3.5 E 5.3 ENE 0.0 0.1
04:05 18.7 16.5 67.8 1024.9 3.4 ENE 4.9 E 0.0 0.0
04:10 19.0 16.5 68.3 1024.9 3.2 ENE 4.9 NNE 0.0 0.0
04:15 19.0 16.6 68.9 1024.9 2.8 ENE 3.9 ENE 0.0 0.1
04:20 19.0 16.5 69.9 1024.9 2.1 ENE 3.5 E 0.0 0.0
04:25 18.9 16.6 70.8 1024.9 2.4 E 3.2 ESE 0.0 0.1
04:30 18.9 16.5 71.3 1024.9 1.9 E 2.8 E 0.0 0.1
04:35 18.9 16.6 71.5 1024.9 2.1 E 3.2 ESE 0.0 0.1
04:40 18.7 16.4 70.7 1024.8 0.6 ENE 2.5 E 0.0 0.1
04:45 18.6 16.3 71.9 1024.8 0.0 NNE 0.0 NE 0.0 0.1
04:50 18.6 16.3 71.9 1024.8 0.1 N 1.4 N 0.0 0.1
04:55 18.5 16.2 72.4 1024.8 0.0 E 1.1 E 0.0 0.1
05:00 18.4 16.1 72.6 1024.8 0.0 ESE 1.1 ESE 0.0 0.1
05:05 18.5 16.2 73.1 1024.8 0.1 ESE 1.4 ESE 0.0 0.2
05:10 18.5 16.3 73.1 1024.8 0.3 E 1.8 E 0.0 0.4
05:15 18.6 16.2 73.1 1024.8 1.3 E 2.1 E 0.0 1.0
05:20 18.5 16.2 73.2 1024.8 1.0 ESE 2.1 E 0.0 2.3
05:25 18.4 16.2 73.5 1024.8 1.9 E 3.2 ENE 0.0 4.0
05:30 18.4 16.1 73.7 1024.8 2.2 E 3.2 E 0.0 6.6
05:35 18.4 16.1 73.8 1024.8 3.6 E 5.3 E 0.0 10.4
05:40 18.6 16.3 73.6 1024.8 4.8 ENE 6.4 ENE 0.0 15.2
05:45 18.8 16.5 73.0 1024.8 4.4 ENE 5.3 ENE 0.0 20.6
05:50 18.9 16.7 72.5 1024.8 1.9 ENE 4.2 NE 0.0 26.4
05:55 19.0 16.9 72.6 1024.9 0.0 NNE 0.0 ENE 0.0 32.3
06:00 19.1 17.1 72.2 1024.9 0.6 NNE 1.4 NNE 0.0 42.3
06:05 19.1 17.3 72.1 1024.9 1.7 N 2.5 NNE 0.0 58.9
06:10 19.2 17.4 72.2 1025.0 1.5 ENE 2.5 ENE 0.0 70.4
06:15 19.3 17.6 72.3 1025.0 2.1 NE 2.5 ENE 0.0 82.0
06:20 19.5 17.9 72.0 1025.0 2.2 NE 3.2 ENE 0.0 94.4
06:25 19.9 18.3 70.5 1025.1 4.5 NE 7.1 NE 0.0 108.0
06:30 20.2 18.8 69.9 1025.1 4.7 ENE 7.8 ENE 0.0 121.7
06:35 20.5 19.2 68.9 1025.1 6.0 ENE 8.5 ENE 0.0 134.8
06:40 21.2 19.8 64.0 1025.1 5.4 ENE 8.5 NE 0.0 150.4
06:45 22.1 20.6 61.0 1025.2 3.2 ENE 6.4 NE 0.0 160.0
06:50 22.5 21.2 60.4 1025.2 2.7 NNE 4.9 NW 0.0 173.7
06:55 22.2 22.3 60.7 1025.2 3.4 NW 6.0 WNW 0.0 191.9
07:00 21.6 22.3 63.2 1025.2 3.1 NW 6.7 WNW 0.0 204.0
07:05 21.4 22.4 64.3 1025.3 3.0 NW 6.7 WNW 0.0 229.2
07:10 21.4 23.0 64.3 1025.3 2.0 WNW 6.7 WNW 0.0 247.0
07:15 21.7 23.9 63.4 1025.3 1.5 WNW 3.9 WNW 0.0 260.0
07:20 22.2 25.0 62.3 1025.3 0.7 W 3.2 WNW 0.0 274.1
07:25 22.7 26.3 60.3 1025.3 0.1 WNW 1.4 WNW 0.0 284.2
07:30 23.3 27.0 59.0 1025.3 0.3 WNW 2.5 WNW 0.0 292.5
07:35 23.6 27.8 57.8 1025.3 1.6 W 3.2 WNW 0.0 303.9
07:40 23.7 28.5 57.5 1025.3 2.7 WNW 5.3 W 0.0 320.4
07:45 23.6 29.0 57.3 1025.3 3.6 WNW 5.6 W 0.0 338.7
07:50 23.7 29.6 57.3 1025.3 2.8 WNW 4.9 W 0.0 355.5
07:55 23.9 30.3 56.3 1025.3 2.6 WNW 4.2 WNW 0.0 372.1
08:00 24.1 30.8 56.0 1025.3 1.1 NW 3.5 NW 0.0 386.5
08:05 24.8 31.3 55.0 1025.3 0.1 W 2.5 W 0.0 388.5
08:10 25.2 31.4 53.2 1025.3 1.6 WNW 3.2 NW 0.0 406.6
08:15 25.7 31.9 52.5 1025.3 1.8 NNW 3.9 NW 0.0 423.8
08:20 26.2 32.5 51.2 1025.3 1.4 NNW 4.6 NW 0.0 424.2
08:25 26.8 33.3 49.9 1025.3 2.1 NNW 5.3 NNW 0.0 443.8
08:30 27.0 33.7 49.3 1025.3 2.2 NNW 4.2 NW 0.0 451.6
08:35 27.3 34.1 48.8 1025.3 2.9 WNW 4.6 NNW 0.0 473.2
08:40 27.4 34.7 49.1 1025.3 3.0 NW 4.9 NW 0.0 488.9
08:45 27.6 35.0 48.4 1025.4 2.5 NNW 4.2 NW 0.0 466.6
08:50 28.1 35.2 46.9 1025.4 2.9 WNW 4.9 NW 0.0 499.2
08:55 28.3 35.7 46.3 1025.4 3.8 WNW 6.0 W 0.0 524.0
09:00 28.6 36.6 44.8 1025.4 3.0 WNW 5.6 WNW 0.0 534.3
09:05 28.9 37.1 44.8 1025.4 5.1 NW 8.5 NW 0.0 540.2
09:10 29.1 36.8 44.4 1025.4 4.4 NW 7.4 WNW 0.0 540.0
09:15 29.3 37.1 44.6 1025.4 5.7 WNW 8.8 NW 0.0 561.9
09:20 29.4 37.7 44.2 1025.5 5.4 WNW 8.8 W 0.0 574.3
09:25 29.8 38.1 42.8 1025.5 3.7 W 7.8 WSW 0.0 584.7
09:30 30.2 38.3 40.5 1025.5 3.2 W 7.4 W 0.0 595.1
09:35 30.8 38.7 39.6 1025.4 3.5 WNW 8.1 WNW 0.0 602.3
09:40 31.5 39.7 37.5 1025.4 2.8 W 6.4 WSW 0.0 611.1
09:45 31.7 40.1 36.3 1025.4 4.0 W 8.1 WNW 0.0 619.8
09:50 32.2 40.5 34.5 1025.3 5.3 W 9.2 W 0.0 629.0
09:55 32.8 40.8 29.3 1025.3 5.6 SE 13.1 SE 0.0 638.9
Màxima 32.8 40.8 73.8 1025.7 6.0 ENE 13.1 SE 0.0 638.9
Mínima 18.4 16.1 29.3 1024.8
Total 0.0